Time;durP1;ratioP1;P1;durP2;ratioP2;P2;SDS_P1;SDS_P2;PMS_P1;PMS_P2;Temp;Humidity;BMP_temperature;BMP_pressure;BME280_temperature;BME280_humidity;BME280_pressure;Samples;Min_cycle;Max_cycle;Signal;HPM_P1;HPM_P2
2023/06/29 00:02:14;;;;;;;2.33;1.55;;;16.60;99.90;;;;;;5017635;28;20185;-93
2023/06/29 00:04:41;;;;;;;2.53;1.20;;;16.50;99.90;;;;;;5018076;28;20183;-93
2023/06/29 00:07:09;;;;;;;3.05;1.60;;;16.60;99.90;;;;;;5017819;28;20175;-94
2023/06/29 00:09:42;;;;;;;1.70;1.33;;;16.50;99.90;;;;;;5017378;28;20190;-95
2023/06/29 00:12:16;;;;;;;2.88;1.63;;;16.60;99.90;;;;;;5017308;28;20317;-94
2023/06/29 00:14:44;;;;;;;4.30;1.63;;;16.60;99.90;;;;;;5017378;28;20293;-95
2023/06/29 00:17:16;;;;;;;4.40;1.83;;;16.60;99.90;;;;;;5017902;28;20224;-94
2023/06/29 00:19:42;;;;;;;3.72;1.50;;;16.60;99.90;;;;;;5017651;28;20624;-93
2023/06/29 00:22:16;;;;;;;2.45;1.65;;;16.50;99.90;;;;;;5017094;28;20177;-94
2023/06/29 00:24:54;;;;;;;4.22;2.00;;;16.60;99.90;;;;;;5017381;28;20178;-94
2023/06/29 00:27:26;;;;;;;5.38;1.80;;;16.60;99.90;;;;;;5021506;28;20362;-93
2023/06/29 00:29:54;;;;;;;4.95;1.83;;;16.60;99.90;;;;;;5037350;28;20253;-96
2023/06/29 00:32:20;;;;;;;5.47;1.70;;;16.60;99.90;;;;;;5037728;28;20178;-96
2023/06/29 00:34:49;;;;;;;2.75;1.52;;;16.70;99.90;;;;;;5037435;28;20312;-96
2023/06/29 00:37:15;;;;;;;6.43;1.90;;;16.60;99.90;;;;;;5037731;28;20177;-96
2023/06/29 00:39:44;;;;;;;5.03;2.00;;;16.70;99.90;;;;;;5051268;28;20181;-96
2023/06/29 00:42:10;;;;;;;4.28;1.80;;;16.70;99.90;;;;;;5057270;28;20272;-96
2023/06/29 00:44:35;;;;;;;3.75;1.70;;;16.70;99.90;;;;;;5056897;28;20203;-95
2023/06/29 00:47:01;;;;;;;6.15;1.80;;;16.70;99.90;;;;;;5057908;28;20177;-96
2023/06/29 00:49:28;;;;;;;4.60;1.90;;;16.70;99.90;;;;;;5058022;28;20173;-96
2023/06/29 00:51:56;;;;;;;2.53;1.80;;;16.70;99.90;;;;;;5058919;28;20494;-94
2023/06/29 00:54:25;;;;;;;3.45;2.00;;;16.70;99.90;;;;;;5058901;28;20204;-95
2023/06/29 00:56:52;;;;;;;3.72;2.15;;;16.80;99.90;;;;;;5041574;28;20188;-96
2023/06/29 00:59:20;;;;;;;4.57;2.13;;;16.80;99.90;;;;;;5057402;28;20173;-96
2023/06/29 01:01:46;;;;;;;4.25;2.45;;;16.80;99.90;;;;;;5057409;28;20291;-96
2023/06/29 01:04:17;;;;;;;3.33;2.17;;;16.80;99.90;;;;;;5057176;28;20165;-96
2023/06/29 01:06:54;;;;;;;4.50;2.35;;;16.80;99.90;;;;;;5057254;28;20177;-96
2023/06/29 01:09:28;;;;;;;4.93;2.40;;;16.80;99.90;;;;;;5057129;28;20211;-95
2023/06/29 01:12:08;;;;;;;5.85;2.30;;;16.80;99.90;;;;;;5057650;28;20184;-95
2023/06/29 01:14:38;;;;;;;5.90;2.30;;;16.80;99.90;;;;;;5057049;28;20248;-95
2023/06/29 01:17:05;;;;;;;3.75;2.20;;;16.80;99.90;;;;;;5058678;28;20170;-95
2023/06/29 01:19:43;;;;;;;4.93;2.50;;;16.80;99.90;;;;;;5058462;28;20181;-96
2023/06/29 01:22:34;;;;;;;6.90;2.35;;;16.80;99.90;;;;;;5056295;28;20196;-94
2023/06/29 01:25:04;;;;;;;6.47;2.60;;;16.90;99.90;;;;;;5043218;28;20173;-93
2023/06/29 01:27:43;;;;;;;6.60;2.65;;;16.80;99.90;;;;;;5056231;28;20674;-95
2023/06/29 01:30:13;;;;;;;6.20;2.60;;;16.80;99.90;;;;;;5056660;28;20193;-94
2023/06/29 01:32:40;;;;;;;9.02;2.75;;;16.70;99.90;;;;;;5057176;28;20626;-94
2023/06/29 01:35:09;;;;;;;4.75;2.75;;;16.70;99.90;;;;;;5060815;28;20193;-95
2023/06/29 01:38:04;;;;;;;5.93;2.78;;;16.80;99.90;;;;;;5060556;28;20173;-94
2023/06/29 01:40:40;;;;;;;8.10;2.70;;;16.80;99.90;;;;;;5042150;28;20178;-94
2023/06/29 01:43:06;;;;;;;7.75;2.55;;;16.80;99.90;;;;;;5041674;28;20162;-92
2023/06/29 01:45:34;;;;;;;4.25;2.78;;;16.80;99.90;;;;;;5041171;28;20178;-93
2023/06/29 01:48:10;;;;;;;4.72;2.83;;;16.80;99.90;;;;;;5041329;28;20205;-95
2023/06/29 01:50:38;;;;;;;4.85;2.58;;;16.80;99.90;;;;;;5041594;28;20188;-93
2023/06/29 01:53:10;;;;;;;5.78;2.63;;;16.90;99.90;;;;;;5024213;28;20236;-93
2023/06/29 01:55:35;;;;;;;5.68;2.50;;;16.90;99.90;;;;;;5041818;28;20632;-93
2023/06/29 01:58:14;;;;;;;6.63;2.67;;;16.90;99.90;;;;;;5042091;28;20177;-94
2023/06/29 02:00:40;;;;;;;4.38;2.67;;;16.90;99.90;;;;;;5042148;28;20185;-91
2023/06/29 02:03:08;;;;;;;7.20;2.75;;;16.90;99.90;;;;;;5041886;28;20178;-93
2023/06/29 02:05:38;;;;;;;6.90;2.67;;;16.90;99.90;;;;;;5042513;28;20628;-95
2023/06/29 02:08:04;;;;;;;7.07;3.08;;;16.90;99.90;;;;;;5041088;28;20178;-92
2023/06/29 02:10:32;;;;;;;9.63;2.80;;;16.90;99.90;;;;;;5041729;28;20178;-91
2023/06/29 02:13:08;;;;;;;5.47;3.00;;;16.90;99.90;;;;;;5040402;28;20288;-94
2023/06/29 02:15:36;;;;;;;6.25;2.88;;;16.80;99.90;;;;;;5040892;28;20165;-92
2023/06/29 02:18:11;;;;;;;4.28;2.22;;;16.80;99.90;;;;;;5041171;28;20181;-93
2023/06/29 02:20:36;;;;;;;7.30;2.22;;;16.80;99.90;;;;;;5039649;28;20189;-93
2023/06/29 02:23:08;;;;;;;6.57;2.97;;;16.80;99.90;;;;;;5040848;28;20178;-92
2023/06/29 02:25:43;;;;;;;4.30;2.40;;;16.80;99.90;;;;;;5043376;28;20249;-95
2023/06/29 02:28:29;;;;;;;5.20;2.55;;;16.80;99.90;;;;;;5037274;28;20326;-94
2023/06/29 02:30:58;;;;;;;5.45;2.58;;;16.80;99.90;;;;;;5007861;28;20610;-96
2023/06/29 02:36:12;;;;;;;4.97;2.40;;;16.70;99.90;;;;;;5041759;28;20190;-95
2023/06/29 02:42:22;;;;;;;5.45;2.40;;;16.80;99.90;;;;;;5048750;28;20178;-96
2023/06/29 02:44:48;;;;;;;5.57;2.40;;;16.70;99.90;;;;;;5020633;28;20277;-96
2023/06/29 02:47:20;;;;;;;4.55;2.67;;;16.70;99.90;;;;;;5045453;28;20243;-96
2023/06/29 02:49:46;;;;;;;6.53;2.42;;;16.80;99.90;;;;;;5043520;28;20174;-94
2023/06/29 02:52:46;;;;;;;5.15;2.10;;;16.80;99.90;;;;;;5048042;28;20204;-96
2023/06/29 02:55:47;;;;;;;3.25;2.22;;;16.80;99.90;;;;;;5028143;28;20284;-95
2023/06/29 03:02:09;;;;;;;5.88;2.20;;;16.70;99.90;;;;;;4983557;28;20180;-95
2023/06/29 03:04:44;;;;;;;;;;;;;;;;;;;;;
2023/06/29 03:07:10;;;;;;;4.75;2.40;;;16.70;99.90;;;;;;5048036;28;20641;-94
2023/06/29 03:09:36;;;;;;;4.88;2.15;;;16.70;99.90;;;;;;5039200;28;20272;-94
2023/06/29 03:12:10;;;;;;;5.03;2.22;;;16.70;99.90;;;;;;5039346;28;20260;-93
2023/06/29 03:14:56;;;;;;;5.15;2.40;;;16.70;99.90;;;;;;5043880;28;20228;-96
2023/06/29 03:17:45;;;;;;;4.05;2.30;;;16.70;99.90;;;;;;5044164;28;20169;-95
2023/06/29 03:20:27;;;;;;;3.30;2.25;;;16.70;99.90;;;;;;5035892;28;20186;-94
2023/06/29 03:22:53;;;;;;;5.05;2.30;;;16.70;99.90;;;;;;5039322;28;20210;-93
2023/06/29 03:25:42;;;;;;;8.13;2.38;;;16.80;99.90;;;;;;5040293;28;20174;-93
2023/06/29 03:28:28;;;;;;;4.90;2.50;;;16.70;99.90;;;;;;5047949;28;20589;-96
2023/06/29 03:30:54;;;;;;;8.68;2.50;;;16.80;99.90;;;;;;5061410;28;20243;-96
2023/06/29 03:33:29;;;;;;;4.85;1.98;;;16.70;99.90;;;;;;5059126;28;20639;-96
2023/06/29 03:35:59;;;;;;;5.20;2.58;;;16.80;99.90;;;;;;5058109;28;20181;-93
2023/06/29 03:38:48;;;;;;;3.15;2.25;;;16.80;99.90;;;;;;5062129;28;20268;-96
2023/06/29 03:41:17;;;;;;;5.32;2.20;;;16.70;99.90;;;;;;5059077;28;20176;-96
2023/06/29 03:44:10;;;;;;;4.65;2.50;;;16.80;99.90;;;;;;5059874;28;20240;-96
2023/06/29 03:46:47;;;;;;;5.55;2.20;;;16.80;99.90;;;;;;5060123;28;20169;-94
2023/06/29 03:49:42;;;;;;;4.70;2.50;;;16.70;99.90;;;;;;5058703;28;20620;-95
2023/06/29 03:52:19;;;;;;;6.78;2.40;;;16.80;99.90;;;;;;5058344;28;20181;-93
2023/06/29 03:54:49;;;;;;;6.22;2.55;;;16.80;99.90;;;;;;5063536;28;20295;-95
2023/06/29 03:57:37;;;;;;;5.07;2.60;;;16.80;99.90;;;;;;5057626;28;20169;-95
2023/06/29 04:00:06;;;;;;;2.50;2.20;;;16.80;99.90;;;;;;5062538;28;20176;-96
2023/06/29 04:02:45;;;;;;;5.28;2.88;;;16.80;99.90;;;;;;5058071;28;20284;-95
2023/06/29 04:05:14;;;;;;;5.53;2.50;;;16.80;99.90;;;;;;5060853;28;20184;-96
2023/06/29 04:07:53;;;;;;;4.93;2.22;;;16.80;99.90;;;;;;5063795;28;20264;-95
2023/06/29 04:10:48;;;;;;;4.22;2.50;;;16.80;99.90;;;;;;5059933;28;20172;-96
2023/06/29 04:13:20;;;;;;;4.15;2.00;;;16.90;99.90;;;;;;5052051;28;20223;-95
2023/06/29 04:15:46;;;;;;;4.88;2.80;;;16.90;99.90;;;;;;5061490;28;20169;-94
2023/06/29 04:18:15;;;;;;;2.95;2.03;;;16.90;99.90;;;;;;5058266;28;20634;-96
2023/06/29 04:20:46;;;;;;;4.25;2.38;;;16.90;99.90;;;;;;5058604;28;20177;-95
2023/06/29 04:23:31;;;;;;;4.80;2.30;;;17.00;99.90;;;;;;5061926;28;20177;-95
2023/06/29 04:25:57;;;;;;;4.95;2.25;;;17.00;99.90;;;;;;5059332;28;20607;-93
2023/06/29 04:28:23;;;;;;;9.10;2.78;;;17.00;99.90;;;;;;5053990;28;20261;-93
2023/06/29 04:30:58;;;;;;;8.32;2.70;;;17.00;99.90;;;;;;5053928;28;20546;-95
2023/06/29 04:33:32;;;;;;;3.65;2.42;;;17.10;99.90;;;;;;5057874;28;20230;-95
2023/06/29 04:36:33;;;;;;;4.47;2.53;;;17.10;99.90;;;;;;5059895;28;20859;-96
2023/06/29 04:39:29;;;;;;;4.80;2.50;;;17.10;99.90;;;;;;5056285;28;20189;-95
2023/06/29 04:42:00;;;;;;;6.60;2.72;;;17.20;99.90;;;;;;5049917;28;20182;-92
2023/06/29 04:44:32;;;;;;;4.82;2.50;;;17.20;99.90;;;;;;5056195;28;20185;-92
2023/06/29 04:47:04;;;;;;;4.15;2.60;;;17.20;99.90;;;;;;5057661;28;20505;-94
2023/06/29 04:49:39;;;;;;;3.58;2.40;;;17.20;99.90;;;;;;5056000;28;20184;-93
2023/06/29 04:52:21;;;;;;;5.03;2.47;;;17.30;99.90;;;;;;5039313;28;20208;-94
2023/06/29 04:55:06;;;;;;;;;;;;;;;;;;;;;
2023/06/29 04:57:32;;;;;;;4.55;2.70;;;17.30;99.90;;;;;;5055450;28;20158;-93
2023/06/29 05:00:16;;;;;;;3.92;2.28;;;17.30;99.90;;;;;;5047501;28;20285;-96
2023/06/29 05:03:21;;;;;;;7.60;2.78;;;17.40;99.90;;;;;;5038319;28;20185;-94
2023/06/29 05:05:50;;;;;;;5.55;2.47;;;17.40;99.90;;;;;;5037712;28;20564;-92
2023/06/29 05:08:16;;;;;;;4.82;2.55;;;17.40;99.90;;;;;;5038758;28;20174;-95
2023/06/29 05:10:53;;;;;;;5.38;2.42;;;17.50;99.90;;;;;;5044040;28;20190;-93
2023/06/29 05:13:44;;;;;;;3.33;2.22;;;17.50;99.90;;;;;;5060740;28;20207;-96
2023/06/29 05:16:10;;;;;;;4.30;2.72;;;17.50;99.90;;;;;;5060511;28;20165;-95
2023/06/29 05:18:41;;;;;;;6.20;2.72;;;17.50;99.90;;;;;;5060840;28;20184;-94
2023/06/29 05:21:15;;;;;;;5.60;2.65;;;17.60;99.90;;;;;;5061241;28;20188;-95
2023/06/29 05:23:46;;;;;;;6.38;3.05;;;17.70;99.90;;;;;;5068542;28;20231;-96
2023/06/29 05:26:12;;;;;;;5.20;2.53;;;17.70;99.90;;;;;;5061178;28;20665;-94
2023/06/29 05:28:41;;;;;;;6.90;2.92;;;17.80;99.90;;;;;;5060475;28;20225;-93
2023/06/29 05:31:07;;;;;;;5.63;3.20;;;17.80;99.90;;;;;;5061557;28;20181;-91
2023/06/29 05:33:55;;;;;;;7.43;3.20;;;17.90;99.90;;;;;;5061013;28;20650;-95
2023/06/29 05:36:24;;;;;;;6.50;2.25;;;18.00;99.90;;;;;;5060760;28;20492;-93
2023/06/29 05:39:02;;;;;;;5.68;2.70;;;18.00;99.90;;;;;;5061662;28;20208;-96
2023/06/29 05:41:40;;;;;;;5.05;3.05;;;18.10;99.90;;;;;;5024922;28;20201;-94
2023/06/29 05:44:07;;;;;;;7.43;3.13;;;18.10;99.90;;;;;;5040600;28;20180;-91
2023/06/29 05:46:33;;;;;;;4.45;2.90;;;18.20;99.90;;;;;;5041013;28;20178;-94
2023/06/29 05:49:02;;;;;;;3.47;2.83;;;18.20;99.90;;;;;;5040127;28;20189;-91
2023/06/29 05:51:32;;;;;;;6.25;3.60;;;18.20;99.90;;;;;;5040336;28;20189;-94
2023/06/29 05:54:04;;;;;;;5.55;3.35;;;18.30;99.90;;;;;;5045108;28;20201;-95
2023/06/29 05:56:30;;;;;;;5.22;3.05;;;18.30;99.90;;;;;;5060127;28;20170;-91
2023/06/29 05:58:56;;;;;;;6.05;3.75;;;18.40;99.90;;;;;;5060721;28;20251;-90
2023/06/29 06:01:22;;;;;;;7.07;3.63;;;18.40;99.90;;;;;;5060105;28;20209;-92
2023/06/29 06:03:54;;;;;;;9.43;4.18;;;18.40;99.90;;;;;;5060208;28;20639;-93
2023/06/29 06:06:21;;;;;;;4.57;3.95;;;18.40;99.90;;;;;;5059915;28;20196;-91
2023/06/29 06:08:47;;;;;;;9.88;4.10;;;18.40;99.90;;;;;;5060005;28;20566;-92
2023/06/29 06:11:12;;;;;;;6.45;3.92;;;18.40;99.90;;;;;;5059781;28;20197;-90
2023/06/29 06:13:39;;;;;;;5.47;3.60;;;18.50;99.90;;;;;;5059557;28;20232;-92
2023/06/29 06:16:08;;;;;;;6.75;3.88;;;18.50;99.90;;;;;;5060985;28;20177;-91
2023/06/29 06:18:33;;;;;;;6.72;3.60;;;18.50;99.90;;;;;;5060505;28;20212;-92
2023/06/29 06:21:03;;;;;;;5.80;4.13;;;18.50;99.90;;;;;;5058538;28;20208;-94
2023/06/29 06:23:28;;;;;;;8.98;4.47;;;18.50;99.90;;;;;;5058824;28;20211;-89
2023/06/29 06:25:54;;;;;;;7.95;4.05;;;18.60;99.90;;;;;;5039369;28;20174;-91
2023/06/29 06:28:23;;;;;;;7.32;3.75;;;18.60;99.90;;;;;;5039554;28;20236;-92
2023/06/29 06:30:49;;;;;;;8.00;4.32;;;18.60;99.90;;;;;;5039745;28;20209;-92
2023/06/29 06:33:16;;;;;;;7.03;3.88;;;18.60;99.90;;;;;;5039446;28;20198;-92
2023/06/29 06:35:46;;;;;;;4.35;3.63;;;18.60;99.90;;;;;;5039521;28;20173;-93
2023/06/29 06:38:12;;;;;;;6.80;3.95;;;18.70;99.90;;;;;;5039946;28;20170;-94
2023/06/29 06:40:39;;;;;;;5.90;3.92;;;18.70;99.90;;;;;;5038979;28;20554;-91
2023/06/29 06:43:05;;;;;;;6.40;4.20;;;18.70;99.90;;;;;;5039869;28;20178;-93
2023/06/29 06:45:33;;;;;;;7.28;3.85;;;18.80;99.90;;;;;;5040545;28;20514;-93
2023/06/29 06:47:59;;;;;;;5.55;3.67;;;18.80;99.90;;;;;;5041074;28;20181;-96
2023/06/29 06:50:25;;;;;;;7.43;3.80;;;18.80;99.90;;;;;;5039305;28;20174;-93
2023/06/29 06:52:53;;;;;;;8.75;3.60;;;18.90;99.90;;;;;;5039012;28;20182;-94
2023/06/29 06:55:21;;;;;;;6.15;4.43;;;18.90;99.90;;;;;;5039184;28;20193;-92
2023/06/29 06:57:47;;;;;;;6.10;3.80;;;19.00;99.90;;;;;;5039799;28;20608;-92
2023/06/29 07:00:20;;;;;;;8.35;3.80;;;19.00;99.90;;;;;;5039027;28;20522;-95
2023/06/29 07:02:46;;;;;;;8.68;4.22;;;19.10;99.90;;;;;;5041525;28;20233;-95
2023/06/29 07:05:15;;;;;;;7.00;3.95;;;19.10;99.90;;;;;;5039793;28;20268;-95
2023/06/29 07:07:41;;;;;;;7.40;4.15;;;19.10;99.90;;;;;;5044368;28;20181;-94
2023/06/29 07:10:10;;;;;;;5.95;3.90;;;19.20;99.90;;;;;;5040943;28;20211;-94
2023/06/29 07:12:36;;;;;;;5.25;4.00;;;19.20;99.90;;;;;;5038968;28;20174;-94
2023/06/29 07:15:07;;;;;;;7.13;4.25;;;19.40;99.90;;;;;;5039392;28;20212;-94
2023/06/29 07:17:44;;;;;;;6.30;3.90;;;19.40;99.90;;;;;;5039900;28;20174;-94
2023/06/29 07:20:19;;;;;;;9.50;4.32;;;19.50;99.90;;;;;;5040716;28;20169;-93
2023/06/29 07:22:45;;;;;;;8.95;4.53;;;19.50;99.90;;;;;;5039414;28;20619;-95
2023/06/29 07:25:22;;;;;;;7.40;4.32;;;19.60;99.90;;;;;;5054763;28;20200;-95
2023/06/29 07:27:47;;;;;;;8.10;5.18;;;19.70;99.90;;;;;;5058181;28;20216;-93
2023/06/29 07:30:13;;;;;;;7.78;4.50;;;19.70;99.90;;;;;;5059004;28;20177;-94
2023/06/29 07:32:39;;;;;;;10.60;5.00;;;19.70;99.90;;;;;;5058558;28;20185;-92
2023/06/29 07:35:09;;;;;;;8.00;5.40;;;19.80;99.90;;;;;;5058630;28;20228;-93
2023/06/29 07:37:36;;;;;;;11.32;4.80;;;19.80;99.90;;;;;;5058854;28;20165;-94
2023/06/29 07:40:04;;;;;;;6.82;4.82;;;19.80;99.90;;;;;;5061134;28;20185;-93
2023/06/29 07:42:33;;;;;;;9.60;5.20;;;19.90;99.90;;;;;;5059768;28;20170;-94
2023/06/29 07:44:59;;;;;;;10.88;6.53;;;20.00;99.90;;;;;;5066384;28;20308;-96
2023/06/29 07:47:25;;;;;;;9.50;6.05;;;20.00;99.90;;;;;;5071291;28;20173;-96
2023/06/29 07:49:53;;;;;;;10.38;5.55;;;20.10;99.90;;;;;;5059056;28;20501;-93
2023/06/29 07:52:22;;;;;;;9.82;5.53;;;20.10;99.90;;;;;;5061429;28;20207;-96
2023/06/29 07:54:52;;;;;;;10.15;6.22;;;20.20;99.90;;;;;;5063305;28;20252;-95
2023/06/29 07:57:19;;;;;;;11.23;5.85;;;20.30;99.90;;;;;;5063344;28;20161;-96
2023/06/29 07:59:48;;;;;;;12.23;6.07;;;20.40;99.90;;;;;;5059873;28;20675;-94
2023/06/29 08:02:14;;;;;;;9.93;7.07;;;20.40;99.90;;;;;;5058843;28;20181;-94
2023/06/29 08:04:40;;;;;;;14.63;8.02;;;20.50;99.90;;;;;;5059955;28;20177;-93
2023/06/29 08:07:20;;;;;;;9.60;6.45;;;20.50;99.90;;;;;;5065013;28;20177;-94
2023/06/29 08:09:46;;;;;;;9.65;6.90;;;20.60;99.90;;;;;;5065614;28;20586;-95
2023/06/29 08:12:13;;;;;;;12.25;6.90;;;20.60;99.90;;;;;;5063040;28;20173;-93
2023/06/29 08:14:43;;;;;;;10.73;5.93;;;20.70;99.90;;;;;;5066229;28;20317;-93
2023/06/29 08:17:11;;;;;;;6.53;5.70;;;20.70;99.90;;;;;;5065258;28;20223;-95
2023/06/29 08:19:37;;;;;;;9.25;5.85;;;20.80;99.90;;;;;;5064182;28;20177;-93
2023/06/29 08:22:03;;;;;;;8.77;5.93;;;20.80;99.90;;;;;;5060613;28;20595;-93
2023/06/29 08:24:31;;;;;;;10.30;6.00;;;20.90;99.90;;;;;;5051894;28;20628;-93
2023/06/29 08:26:59;;;;;;;11.15;5.82;;;20.90;99.90;;;;;;5037656;28;20177;-94
2023/06/29 08:29:31;;;;;;;12.45;6.63;;;21.00;99.90;;;;;;5041887;28;20308;-94
2023/06/29 08:31:57;;;;;;;9.57;6.20;;;21.20;99.90;;;;;;5040474;28;20204;-94
2023/06/29 08:34:25;;;;;;;12.77;5.80;;;21.30;99.90;;;;;;5039423;28;20209;-93
2023/06/29 08:36:51;;;;;;;9.48;5.70;;;21.50;99.90;;;;;;5041156;28;20616;-93
2023/06/29 08:39:16;;;;;;;9.90;5.50;;;21.70;99.90;;;;;;5041485;28;20273;-95
2023/06/29 08:41:43;;;;;;;10.00;5.78;;;21.80;99.90;;;;;;5046622;28;20174;-94
2023/06/29 08:44:13;;;;;;;9.73;5.57;;;22.00;99.90;;;;;;5040971;28;20185;-94
2023/06/29 08:46:43;;;;;;;9.68;5.50;;;22.10;99.90;;;;;;5039367;28;20174;-94
2023/06/29 08:49:15;;;;;;;7.85;5.85;;;22.10;99.90;;;;;;5039688;28;20182;-95
2023/06/29 08:51:43;;;;;;;11.18;6.28;;;22.10;99.90;;;;;;5040880;28;20185;-96
2023/06/29 08:54:12;;;;;;;12.00;5.82;;;22.10;99.90;;;;;;5038144;28;20211;-93
2023/06/29 08:56:40;;;;;;;8.15;5.35;;;22.10;99.90;;;;;;5037623;28;20209;-93
2023/06/29 08:59:06;;;;;;;9.43;5.90;;;22.20;99.90;;;;;;5037773;28;20178;-93
2023/06/29 09:01:32;;;;;;;10.18;5.05;;;22.30;99.90;;;;;;5045298;28;20227;-93
2023/06/29 09:03:59;;;;;;;9.70;5.82;;;22.30;99.90;;;;;;5041840;28;20255;-95
2023/06/29 09:06:29;;;;;;;8.93;6.03;;;22.30;99.90;;;;;;5037866;28;20178;-93
2023/06/29 09:08:55;;;;;;;13.70;6.03;;;22.30;99.90;;;;;;5037223;28;20261;-93
2023/06/29 09:11:21;;;;;;;8.60;5.53;;;22.40;99.90;;;;;;5043769;28;20647;-95
2023/06/29 09:13:56;;;;;;;7.85;5.30;;;22.40;99.90;;;;;;5040098;28;20272;-95
2023/06/29 09:18:57;;;;;;;9.60;6.10;;;22.50;99.90;;;;;;5079646;28;20233;-93
2023/06/29 09:21:28;;;;;;;9.80;6.43;;;22.50;99.90;;;;;;5065248;28;20168;-91
2023/06/29 09:23:59;;;;;;;9.77;6.63;;;22.50;99.90;;;;;;5065660;28;20207;-91
2023/06/29 09:26:29;;;;;;;18.02;7.75;;;22.60;99.90;;;;;;5065780;28;20169;-93
2023/06/29 09:29:03;;;;;;;16.08;6.30;;;22.50;99.90;;;;;;5065865;28;20187;-92
2023/06/29 09:31:35;;;;;;;12.70;6.63;;;22.60;99.90;;;;;;5064809;28;20191;-95
2023/06/29 09:34:22;;;;;;;14.32;7.05;;;22.70;99.90;;;;;;5065525;28;20209;-92
2023/06/29 09:36:50;;;;;;;15.07;7.63;;;22.90;99.90;;;;;;5063645;28;20601;-94
2023/06/29 09:39:17;;;;;;;15.77;7.18;;;22.90;99.90;;;;;;5064259;28;20172;-91
2023/06/29 09:41:51;;;;;;;12.10;7.10;;;23.00;99.90;;;;;;5064875;28;20525;-92
2023/06/29 09:44:20;;;;;;;9.55;6.65;;;23.00;99.90;;;;;;5064456;28;20200;-91
2023/06/29 09:46:50;;;;;;;14.18;7.78;;;23.10;99.90;;;;;;5065176;28;20231;-91
2023/06/29 09:49:19;;;;;;;17.05;9.05;;;23.10;99.90;;;;;;5064776;28;20177;-93
2023/06/29 09:51:48;;;;;;;16.92;8.82;;;23.20;99.90;;;;;;5065365;28;20193;-91
2023/06/29 09:54:18;;;;;;;12.35;7.97;;;23.20;99.90;;;;;;5067063;28;20213;-92
2023/06/29 09:56:48;;;;;;;13.95;8.18;;;23.30;99.90;;;;;;5069616;28;20170;-92
2023/06/29 09:59:14;;;;;;;14.93;9.35;;;23.40;99.90;;;;;;5068889;28;20173;-92
2023/06/29 10:01:41;;;;;;;13.30;8.68;;;23.50;99.90;;;;;;5070043;28;20180;-91
2023/06/29 10:04:07;;;;;;;19.30;9.45;;;23.70;99.90;;;;;;5067931;28;20240;-91
2023/06/29 10:06:50;;;;;;;12.18;8.90;;;23.60;99.90;;;;;;5068098;28;20629;-90
2023/06/29 10:09:21;;;;;;;14.82;9.55;;;23.60;99.90;;;;;;5066332;28;20176;-91
2023/06/29 10:11:55;;;;;;;15.20;10.30;;;23.60;99.90;;;;;;5067546;28;20300;-91
2023/06/29 10:14:25;;;;;;;15.23;10.20;;;23.70;99.90;;;;;;5069036;28;20209;-91
2023/06/29 10:16:54;;;;;;;16.00;10.05;;;23.60;99.90;;;;;;5067240;28;20192;-93
2023/06/29 10:19:24;;;;;;;12.60;9.25;;;23.80;99.90;;;;;;5070038;28;20592;-92
2023/06/29 10:21:57;;;;;;;15.35;9.75;;;23.80;99.90;;;;;;5070433;28;20173;-93
2023/06/29 10:24:31;;;;;;;17.90;10.07;;;23.90;99.90;;;;;;5069210;28;20284;-91
2023/06/29 10:26:59;;;;;;;19.92;10.70;;;24.10;99.90;;;;;;5069275;28;20173;-92
2023/06/29 10:29:25;;;;;;;15.00;9.85;;;24.10;99.90;;;;;;5069258;28;20180;-91
2023/06/29 10:31:59;;;;;;;17.65;10.90;;;24.20;99.90;;;;;;5057781;28;20186;-93
2023/06/29 10:34:26;;;;;;;17.25;10.93;;;24.20;99.90;;;;;;5049157;28;20700;-91
2023/06/29 10:36:54;;;;;;;13.73;9.75;;;24.30;99.90;;;;;;5049499;28;20174;-90
2023/06/29 10:39:43;;;;;;;17.25;10.40;;;24.30;99.90;;;;;;5049258;28;20637;-91
2023/06/29 10:42:32;;;;;;;16.02;10.90;;;24.30;99.90;;;;;;5049020;28;20174;-92
2023/06/29 10:44:59;;;;;;;17.48;10.38;;;24.30;99.90;;;;;;5049580;28;20666;-89
2023/06/29 10:47:37;;;;;;;18.58;11.50;;;24.30;99.90;;;;;;5068831;28;20177;-93
2023/06/29 10:50:09;;;;;;;13.65;9.73;;;24.20;99.90;;;;;;5068110;28;20173;-92
2023/06/29 10:52:38;;;;;;;18.02;10.65;;;24.40;99.90;;;;;;5066921;28;20539;-91
2023/06/29 10:55:22;;;;;;;16.08;10.15;;;24.30;99.90;;;;;;5065205;28;20244;-93
2023/06/29 10:57:54;;;;;;;18.05;9.82;;;24.40;99.90;;;;;;5067108;28;20173;-90
2023/06/29 11:00:22;;;;;;;14.43;9.20;;;24.40;99.90;;;;;;5068697;28;20180;-91
2023/06/29 11:02:54;;;;;;;13.32;9.13;;;24.40;99.90;;;;;;5068955;28;20184;-90
2023/06/29 11:05:21;;;;;;;16.27;9.93;;;24.50;99.90;;;;;;5066895;28;20649;-90
2023/06/29 11:07:55;;;;;;;14.98;10.43;;;24.40;99.90;;;;;;5066958;28;20259;-90
2023/06/29 11:10:22;;;;;;;14.02;10.05;;;24.50;99.90;;;;;;5067491;28;20177;-91
2023/06/29 11:12:50;;;;;;;16.15;10.35;;;24.60;99.90;;;;;;5068298;28;20188;-92
2023/06/29 11:15:18;;;;;;;16.73;10.07;;;24.60;99.90;;;;;;5067303;28;20213;-92
2023/06/29 11:17:45;;;;;;;13.40;10.35;;;24.40;99.90;;;;;;5066852;28;20258;-93
2023/06/29 11:20:13;;;;;;;15.13;10.88;;;24.20;99.90;;;;;;5067006;28;20166;-93
2023/06/29 11:22:42;;;;;;;18.67;11.13;;;24.10;99.90;;;;;;5067318;28;20177;-92
2023/06/29 11:25:11;;;;;;;15.77;10.07;;;23.90;99.90;;;;;;5066592;28;20220;-91
2023/06/29 11:27:41;;;;;;;13.98;9.95;;;23.90;99.90;;;;;;5067462;28;20174;-93
2023/06/29 11:30:09;;;;;;;20.13;10.60;;;24.00;99.90;;;;;;5067196;28;20177;-90
2023/06/29 11:32:37;;;;;;;16.95;10.20;;;24.00;99.90;;;;;;5065993;28;20176;-92
2023/06/29 11:35:13;;;;;;;14.27;10.40;;;24.10;99.90;;;;;;5066429;28;20205;-91
2023/06/29 11:37:40;;;;;;;17.63;11.00;;;24.20;99.90;;;;;;5066081;28;20177;-91
2023/06/29 11:40:22;;;;;;;16.98;11.77;;;24.10;99.90;;;;;;5066893;28;20177;-92
2023/06/29 11:42:49;;;;;;;17.95;11.65;;;24.20;99.90;;;;;;5046845;28;20189;-91
2023/06/29 11:45:17;;;;;;;16.92;11.75;;;24.10;99.90;;;;;;5045339;28;20209;-93
2023/06/29 11:47:56;;;;;;;15.95;10.60;;;24.00;99.90;;;;;;5046506;28;20687;-90
2023/06/29 11:50:25;;;;;;;13.43;9.57;;;24.00;99.90;;;;;;5044600;28;20239;-93
2023/06/29 11:52:52;;;;;;;15.73;10.30;;;23.90;99.90;;;;;;5046067;28;20591;-92
2023/06/29 11:55:18;;;;;;;18.80;12.40;;;23.80;99.90;;;;;;5055287;28;20274;-93
2023/06/29 11:57:53;;;;;;;16.50;10.82;;;23.70;99.90;;;;;;5065436;28;20169;-91
2023/06/29 12:00:20;;;;;;;17.23;11.88;;;23.80;99.90;;;;;;5064959;28;20181;-94
2023/06/29 12:02:46;;;;;;;16.77;11.40;;;23.80;99.90;;;;;;5065474;28;20181;-92
2023/06/29 12:05:12;;;;;;;15.15;10.65;;;23.70;99.90;;;;;;5065556;28;20200;-91
2023/06/29 12:07:43;;;;;;;17.30;11.27;;;23.80;99.90;;;;;;5063868;28;20181;-91
2023/06/29 12:10:22;;;;;;;20.60;12.43;;;23.70;99.90;;;;;;5065386;28;20187;-92
2023/06/29 12:12:59;;;;;;;17.48;12.30;;;23.80;99.90;;;;;;5064666;28;20694;-90
2023/06/29 12:15:31;;;;;;;16.65;12.25;;;23.80;99.90;;;;;;5064916;28;20258;-93
2023/06/29 12:18:23;;;;;;;19.00;12.27;;;23.80;99.90;;;;;;5062592;28;20237;-91
2023/06/29 12:20:49;;;;;;;19.08;11.75;;;23.70;99.90;;;;;;5066087;28;20169;-91
2023/06/29 12:23:16;;;;;;;19.48;12.48;;;23.70;99.90;;;;;;5066354;28;20187;-93
2023/06/29 12:25:46;;;;;;;17.05;12.07;;;23.60;99.90;;;;;;5062431;28;20685;-92
2023/06/29 12:28:13;;;;;;;22.73;12.93;;;23.60;99.90;;;;;;5063978;28;20546;-94
2023/06/29 12:30:40;;;;;;;17.33;12.02;;;23.60;99.90;;;;;;5064513;28;20237;-94
2023/06/29 12:33:07;;;;;;;17.02;12.00;;;23.70;99.90;;;;;;5065316;28;20191;-91
2023/06/29 12:35:33;;;;;;;18.92;12.40;;;23.60;99.90;;;;;;5065216;28;20193;-91
2023/06/29 12:37:59;;;;;;;16.80;12.23;;;23.60;99.90;;;;;;5064935;28;20264;-92
2023/06/29 12:40:26;;;;;;;18.35;12.10;;;23.70;99.90;;;;;;5062208;28;20645;-92
2023/06/29 12:42:52;;;;;;;18.05;11.63;;;23.70;99.90;;;;;;5064634;28;20173;-91
2023/06/29 12:45:19;;;;;;;19.83;11.90;;;23.70;99.90;;;;;;5065096;28;20200;-93
2023/06/29 12:47:45;;;;;;;14.88;10.70;;;23.70;99.90;;;;;;5065172;28;20173;-92
2023/06/29 12:50:14;;;;;;;16.27;10.32;;;23.70;99.90;;;;;;5064859;28;20598;-92
2023/06/29 12:52:40;;;;;;;15.25;10.45;;;23.80;99.90;;;;;;5064831;28;20326;-93
2023/06/29 12:55:07;;;;;;;17.92;11.15;;;23.80;99.90;;;;;;5065110;28;20209;-91
2023/06/29 12:57:32;;;;;;;17.00;10.27;;;23.90;99.90;;;;;;5065291;28;20257;-93
2023/06/29 13:00:00;;;;;;;13.85;10.30;;;24.00;99.90;;;;;;5065806;28;20633;-92
2023/06/29 13:02:27;;;;;;;13.05;10.30;;;24.10;99.90;;;;;;5064503;28;20177;-92
2023/06/29 13:04:56;;;;;;;13.38;9.98;;;24.10;99.90;;;;;;5066519;28;20239;-92
2023/06/29 13:07:23;;;;;;;13.80;9.88;;;24.20;99.90;;;;;;5066205;28;20211;-91
2023/06/29 13:09:51;;;;;;;14.30;11.02;;;24.20;99.90;;;;;;5066207;28;20176;-91
2023/06/29 13:12:18;;;;;;;15.15;10.63;;;24.30;99.90;;;;;;5065015;28;20199;-91
2023/06/29 13:14:45;;;;;;;16.88;11.55;;;24.20;99.90;;;;;;5064526;28;20216;-91
2023/06/29 13:17:12;;;;;;;16.15;10.80;;;24.20;99.90;;;;;;5064008;28;20221;-90